Time,TemperatureF,DewpointF,PressureIn,WindDirection,WindDirectionDegrees,WindSpeedMPH,WindSpeedGustMPH,Humidity,HourlyPrecipIn,Conditions,Clouds,dailyrainin,SoftwareType,DateUTC
2013-01-12 00:02:00,39.7,39.4,29.33,SW,232,3.0,4.0,99,0.00,,OVC003,0.00,VWS V14.01,2013-01-12 06:02:00,
2013-01-12 00:07:00,39.5,39.2,29.33,WSW,253,8.0,8.0,99,0.00,,OVC003,0.00,VWS V14.01,2013-01-12 06:07:00,
2013-01-12 00:12:00,39.6,39.3,29.33,WSW,238,10.0,14.0,99,0.00,,OVC003,0.00,VWS V14.01,2013-01-12 06:12:00,
2013-01-12 00:17:00,39.3,38.8,29.33,WSW,246,10.0,14.0,98,0.00,,OVC003,0.00,VWS V14.01,2013-01-12 06:17:00,
2013-01-12 00:22:00,39.2,38.7,29.33,WSW,243,6.0,14.0,98,0.00,,OVC003,0.00,VWS V14.01,2013-01-12 06:22:00,
2013-01-12 00:27:00,39.0,38.5,29.34,WSW,248,7.0,15.0,98,0.00,,OVC003,0.00,VWS V14.01,2013-01-12 06:27:00,
2013-01-12 00:32:00,38.8,38.0,29.34,SW,232,6.0,11.0,97,0.00,,OVC029,0.00,VWS V14.01,2013-01-12 06:32:00,
2013-01-12 00:37:00,38.6,37.8,29.34,WSW,248,5.0,11.0,97,0.00,,OVC029,0.00,VWS V14.01,2013-01-12 06:37:00,
2013-01-12 00:42:00,38.4,37.6,29.34,SW,233,5.0,11.0,97,0.00,,OVC029,0.00,VWS V14.01,2013-01-12 06:42:00,
2013-01-12 00:47:00,38.2,37.4,29.34,SW,236,4.0,11.0,97,0.00,,OVC007,0.00,VWS V14.01,2013-01-12 06:47:00,
2013-01-12 00:52:00,38.1,37.3,29.34,SW,235,4.0,11.0,97,0.00,,OVC007,0.00,VWS V14.01,2013-01-12 06:52:00,
2013-01-12 00:57:00,38.0,37.2,29.34,SW,232,6.0,11.0,97,0.00,,OVC007,0.00,VWS V14.01,2013-01-12 06:57:00,
2013-01-12 01:02:00,37.9,37.1,29.34,SW,235,4.0,6.0,97,0.00,,OVC007,0.00,VWS V14.01,2013-01-12 07:02:00,
2013-01-12 01:07:00,37.7,36.9,29.34,WSW,240,3.0,6.0,97,0.00,,OVC007,0.00,VWS V14.01,2013-01-12 07:07:00,
2013-01-12 01:12:00,37.5,36.7,29.34,WSW,248,4.0,6.0,97,0.00,,OVC007,0.00,VWS V14.01,2013-01-12 07:12:00,
2013-01-12 01:17:00,37.5,36.7,29.34,SW,218,3.0,6.0,97,0.00,,OVC007,0.00,VWS V14.01,2013-01-12 07:17:00,
2013-01-12 01:22:00,37.4,36.6,29.34,SW,233,5.0,6.0,97,0.00,,OVC007,0.00,VWS V14.01,2013-01-12 07:22:00,
2013-01-12 01:27:00,37.4,36.6,29.34,SW,218,4.0,6.0,97,0.00,,OVC007,0.00,VWS V14.01,2013-01-12 07:27:00,
2013-01-12 01:32:00,37.4,36.6,29.35,SW,224,6.0,6.0,97,0.00,,OVC005,0.00,VWS V14.01,2013-01-12 07:32:00,
2013-01-12 01:37:00,37.3,36.5,29.35,WSW,239,2.0,6.0,97,0.00,,OVC005,0.00,VWS V14.01,2013-01-12 07:37:00,
2013-01-12 01:42:00,37.1,36.3,29.35,WSW,237,3.0,6.0,97,0.00,,OVC005,0.00,VWS V14.01,2013-01-12 07:42:00,
2013-01-12 01:47:00,37.1,36.3,29.36,SW,228,6.0,7.0,97,0.00,,OVC005,0.00,VWS V14.01,2013-01-12 07:47:00,
2013-01-12 01:52:00,37.0,36.2,29.37,SW,222,4.0,7.0,97,0.00,,OVC005,0.00,VWS V14.01,2013-01-12 07:52:00,
2013-01-12 01:57:00,37.0,36.2,29.37,SW,226,7.0,11.0,97,0.00,,OVC005,0.00,VWS V14.01,2013-01-12 07:57:00,
2013-01-12 02:02:00,36.9,36.1,29.37,SW,218,6.0,9.0,97,0.00,,OVC005,0.00,VWS V14.01,2013-01-12 08:02:00,
2013-01-12 02:07:00,36.7,35.7,29.38,SW,228,6.0,10.0,96,0.00,,OVC005,0.00,VWS V14.01,2013-01-12 08:07:00,
2013-01-12 02:12:00,36.7,35.7,29.38,WSW,240,10.0,10.0,96,0.00,,OVC005,0.00,VWS V14.01,2013-01-12 08:12:00,
2013-01-12 02:17:00,36.6,35.6,29.39,SW,222,6.0,12.0,96,0.00,,OVC005,0.00,VWS V14.01,2013-01-12 08:17:00,
2013-01-12 02:22:00,36.4,35.4,29.39,SW,219,6.0,13.0,96,0.00,,OVC005,0.00,VWS V14.01,2013-01-12 08:22:00,
2013-01-12 02:27:00,36.3,35.0,29.39,WSW,238,8.0,13.0,95,0.00,,OVC005,0.00,VWS V14.01,2013-01-12 08:27:00,
2013-01-12 02:32:00,36.2,34.9,29.39,SW,228,8.0,12.0,95,0.00,,OVC007,0.00,VWS V14.01,2013-01-12 08:32:00,
2013-01-12 02:37:00,36.1,34.8,29.39,SW,225,7.0,16.0,95,0.00,,OVC007,0.00,VWS V14.01,2013-01-12 08:37:00,
2013-01-12 02:42:00,35.9,34.6,29.39,WSW,242,8.0,16.0,95,0.00,,OVC007,0.00,VWS V14.01,2013-01-12 08:42:00,
2013-01-12 02:47:00,35.7,34.4,29.39,WSW,239,6.0,16.0,95,0.00,,OVC007,0.00,VWS V14.01,2013-01-12 08:47:00,
2013-01-12 02:52:00,35.5,34.2,29.39,WSW,249,6.0,16.0,95,0.00,,OVC007,0.00,VWS V14.01,2013-01-12 08:52:00,
2013-01-12 02:57:00,35.2,33.9,29.39,WSW,240,5.0,16.0,95,0.00,,OVC007,0.00,VWS V14.01,2013-01-12 08:57:00,
2013-01-12 03:02:00,35.0,33.5,29.39,SSW,205,5.0,11.0,94,0.00,,OVC007,0.00,VWS V14.01,2013-01-12 09:02:00,
2013-01-12 03:07:00,34.8,33.2,29.38,WSW,237,6.0,11.0,94,0.00,,OVC007,0.00,VWS V14.01,2013-01-12 09:07:00,
2013-01-12 03:12:00,34.5,33.0,29.39,WSW,245,11.0,11.0,94,0.00,,OVC007,0.00,VWS V14.01,2013-01-12 09:12:00,
2013-01-12 03:17:00,34.0,32.2,29.39,SW,225,10.0,14.0,93,0.00,,OVC007,0.00,VWS V14.01,2013-01-12 09:17:00,
2013-01-12 03:22:00,33.5,31.7,29.40,WSW,245,11.0,14.0,93,0.00,,OVC007,0.00,VWS V14.01,2013-01-12 09:22:00,
2013-01-12 03:27:00,33.0,31.2,29.40,SW,228,10.0,17.0,93,0.00,,OVC007,0.00,VWS V14.01,2013-01-12 09:27:00,
2013-01-12 03:32:00,32.6,30.8,29.41,SW,222,11.0,15.0,93,0.00,,OVC011,0.00,VWS V14.01,2013-01-12 09:32:00,
2013-01-12 03:37:00,31.9,30.1,29.42,WSW,242,19.0,25.0,93,0.00,,OVC011,0.00,VWS V14.01,2013-01-12 09:37:00,
2013-01-12 03:42:00,30.8,28.5,29.42,WSW,248,22.0,25.0,91,0.00,,OVC011,0.00,VWS V14.01,2013-01-12 09:42:00,
2013-01-12 03:47:00,30.0,28.0,29.43,WSW,248,15.0,25.0,92,0.00,,OVC011,0.00,VWS V14.01,2013-01-12 09:47:00,
2013-01-12 03:52:00,29.2,26.9,29.43,SW,214,15.0,26.0,91,0.00,,OVC015,0.00,VWS V14.01,2013-01-12 09:52:00,
2013-01-12 03:57:00,28.3,26.0,29.44,SW,229,12.0,26.0,91,0.00,,OVC015,0.00,VWS V14.01,2013-01-12 09:57:00,
2013-01-12 04:02:00,27.6,25.3,29.44,WSW,248,12.0,22.0,91,0.00,,OVC015,0.00,VWS V14.01,2013-01-12 10:02:00,
2013-01-12 04:07:00,27.1,24.6,29.45,WSW,242,9.0,22.0,90,0.00,,OVC015,0.00,VWS V14.01,2013-01-12 10:07:00,
2013-01-12 04:12:00,26.6,24.1,29.45,WSW,252,13.0,22.0,90,0.00,,OVC015,0.00,VWS V14.01,2013-01-12 10:12:00,
2013-01-12 04:17:00,26.1,23.3,29.46,West,259,18.0,26.0,89,0.00,,OVC015,0.00,VWS V14.01,2013-01-12 10:17:00,
2013-01-12 04:22:00,25.6,22.8,29.46,WSW,254,15.0,26.0,89,0.00,,OVC015,0.00,VWS V14.01,2013-01-12 10:22:00,
2013-01-12 04:27:00,24.9,22.1,29.47,WSW,240,18.0,26.0,89,0.00,,OVC015,0.00,VWS V14.01,2013-01-12 10:27:00,
2013-01-12 04:32:00,24.3,21.8,29.48,WSW,249,10.0,21.0,90,0.00,,OVC016,0.00,VWS V14.01,2013-01-12 10:32:00,
2013-01-12 04:37:00,23.6,20.3,29.48,West,269,23.0,26.0,87,0.00,,OVC016,0.00,VWS V14.01,2013-01-12 10:37:00,
2013-01-12 04:42:00,23.1,19.8,29.49,West,278,19.0,26.0,87,0.00,,OVC016,0.00,VWS V14.01,2013-01-12 10:42:00,
2013-01-12 04:47:00,22.7,19.4,29.50,WSW,256,18.0,26.0,87,0.00,,OVC016,0.00,VWS V14.01,2013-01-12 10:47:00,
2013-01-12 04:52:00,22.6,19.6,29.50,SW,231,13.0,26.0,88,0.00,,OVC018,0.00,VWS V14.01,2013-01-12 10:52:00,
2013-01-12 04:57:00,22.2,18.9,29.51,WSW,255,18.0,26.0,87,0.00,,OVC018,0.00,VWS V14.01,2013-01-12 10:57:00,
2013-01-12 05:02:00,21.8,18.8,29.51,SW,222,15.0,22.0,88,0.00,,OVC018,0.00,VWS V14.01,2013-01-12 11:02:00,
2013-01-12 05:07:00,21.6,18.6,29.52,WSW,256,6.0,22.0,88,0.00,,OVC018,0.00,VWS V14.01,2013-01-12 11:07:00,
2013-01-12 05:12:00,21.2,17.9,29.52,WSW,238,17.0,25.0,87,0.00,,OVC018,0.00,VWS V14.01,2013-01-12 11:12:00,
2013-01-12 05:17:00,20.8,17.3,29.53,SW,231,16.0,25.0,86,0.00,,OVC018,0.00,VWS V14.01,2013-01-12 11:17:00,
2013-01-12 05:22:00,20.4,16.6,29.53,SW,232,13.0,28.0,85,0.00,,OVC018,0.00,VWS V14.01,2013-01-12 11:22:00,
2013-01-12 05:27:00,20.3,16.8,29.54,WSW,258,17.0,28.0,86,0.00,,OVC018,0.00,VWS V14.01,2013-01-12 11:27:00,
2013-01-12 05:32:00,20.2,16.7,29.55,WSW,249,15.0,18.0,86,0.00,,OVC014,0.00,VWS V14.01,2013-01-12 11:32:00,
2013-01-12 05:37:00,20.1,16.3,29.55,WSW,251,8.0,22.0,85,0.00,,OVC014,0.00,VWS V14.01,2013-01-12 11:37:00,
2013-01-12 05:42:00,20.1,16.6,29.56,WSW,257,9.0,22.0,86,0.00,,OVC014,0.00,VWS V14.01,2013-01-12 11:42:00,
2013-01-12 05:47:00,19.8,16.0,29.56,WSW,238,13.0,22.0,85,0.00,,OVC014,0.00,VWS V14.01,2013-01-12 11:47:00,
2013-01-12 05:52:00,19.4,15.9,29.56,WSW,249,13.0,22.0,86,0.00,,OVC016,0.00,VWS V14.01,2013-01-12 11:52:00,
2013-01-12 05:57:00,19.2,15.7,29.57,WSW,243,18.0,23.0,86,0.00,,OVC016,0.00,VWS V14.01,2013-01-12 11:57:00,
2013-01-12 06:02:00,19.0,15.5,29.58,West,260,9.0,19.0,86,0.00,,OVC016,0.00,VWS V14.01,2013-01-12 12:02:00,
2013-01-12 06:07:00,18.9,15.7,29.58,SW,222,13.0,19.0,87,0.00,,OVC016,0.00,VWS V14.01,2013-01-12 12:07:00,
2013-01-12 06:12:00,18.8,15.6,29.59,WSW,245,12.0,22.0,87,0.00,,OVC016,0.00,VWS V14.01,2013-01-12 12:12:00,
2013-01-12 06:17:00,18.7,15.5,29.60,WSW,246,16.0,24.0,87,0.00,,OVC016,0.00,VWS V14.01,2013-01-12 12:17:00,
2013-01-12 06:22:00,18.6,15.4,29.60,West,281,12.0,24.0,87,0.00,,OVC016,0.00,VWS V14.01,2013-01-12 12:22:00,
2013-01-12 06:27:00,18.5,15.3,29.61,WSW,238,13.0,24.0,87,0.00,,OVC016,0.00,VWS V14.01,2013-01-12 12:27:00,
2013-01-12 06:32:00,18.4,14.6,29.61,West,269,13.0,20.0,85,0.00,,OVC024,0.00,VWS V14.01,2013-01-12 12:32:00,
2013-01-12 06:37:00,18.2,13.9,29.62,West,270,8.0,23.0,83,0.00,,OVC024,0.00,VWS V14.01,2013-01-12 12:37:00,
2013-01-12 06:42:00,18.1,13.8,29.62,West,262,8.0,23.0,83,0.00,,OVC024,0.00,VWS V14.01,2013-01-12 12:42:00,
2013-01-12 06:47:00,17.9,13.6,29.62,WSW,250,15.0,23.0,83,0.00,,OVC024,0.00,VWS V14.01,2013-01-12 12:47:00,
2013-01-12 06:52:00,17.8,13.5,29.63,West,269,20.0,23.0,83,0.00,,OVC036,0.00,VWS V14.01,2013-01-12 12:52:00,
2013-01-12 06:57:00,17.7,13.1,29.63,WSW,252,14.0,23.0,82,0.00,,OVC036,0.00,VWS V14.01,2013-01-12 12:57:00,
2013-01-12 07:02:00,17.7,13.4,29.64,West,267,11.0,18.0,83,0.00,,OVC036,0.00,VWS V14.01,2013-01-12 13:02:00,
2013-01-12 07:07:00,17.7,13.7,29.64,West,260,16.0,18.0,84,0.00,,OVC036,0.00,VWS V14.01,2013-01-12 13:07:00,
2013-01-12 07:12:00,17.7,13.4,29.65,WSW,254,18.0,22.0,83,0.00,,OVC036,0.00,VWS V14.01,2013-01-12 13:12:00,
2013-01-12 07:17:00,17.5,13.2,29.65,West,259,12.0,22.0,83,0.00,,OVC036,0.00,VWS V14.01,2013-01-12 13:17:00,
2013-01-12 07:22:00,17.3,13.0,29.66,West,263,10.0,22.0,83,0.00,,OVC036,0.00,VWS V14.01,2013-01-12 13:22:00,
2013-01-12 07:27:00,17.1,12.6,29.67,WSW,257,16.0,23.0,82,0.00,,OVC036,0.00,VWS V14.01,2013-01-12 13:27:00,
2013-01-12 07:32:00,17.0,12.5,29.67,West,263,9.0,26.0,82,0.00,,OVC037,0.00,VWS V14.01,2013-01-12 13:32:00,
2013-01-12 07:37:00,16.8,12.0,29.67,WSW,253,21.0,26.0,81,0.00,,OVC037,0.00,VWS V14.01,2013-01-12 13:37:00,
2013-01-12 07:42:00,16.7,11.9,29.68,WSW,242,9.0,26.0,81,0.00,,OVC037,0.00,VWS V14.01,2013-01-12 13:42:00,
2013-01-12 07:47:00,16.6,11.5,29.68,West,280,14.0,26.0,80,0.00,,OVC037,0.00,VWS V14.01,2013-01-12 13:47:00,
2013-01-12 07:52:00,16.5,11.4,29.69,WSW,250,18.0,26.0,80,0.00,,OVC039,0.00,VWS V14.01,2013-01-12 13:52:00,
2013-01-12 07:57:00,16.4,11.3,29.69,West,276,13.0,26.0,80,0.00,,OVC039,0.00,VWS V14.01,2013-01-12 13:57:00,
2013-01-12 08:02:00,16.4,11.6,29.70,West,259,18.0,23.0,81,0.00,,OVC039,0.00,VWS V14.01,2013-01-12 14:02:00,
2013-01-12 08:07:00,16.3,11.2,29.71,WSW,257,10.0,23.0,80,0.00,,OVC039,0.00,VWS V14.01,2013-01-12 14:07:00,
2013-01-12 08:12:00,16.3,11.5,29.71,West,259,6.0,23.0,81,0.00,,OVC039,0.00,VWS V14.01,2013-01-12 14:12:00,
2013-01-12 08:17:00,16.1,11.3,29.71,SW,233,10.0,23.0,81,0.00,,OVC039,0.00,VWS V14.01,2013-01-12 14:17:00,
2013-01-12 08:22:00,15.9,10.8,29.72,WSW,256,10.0,23.0,80,0.00,,OVC039,0.00,VWS V14.01,2013-01-12 14:22:00,
2013-01-12 08:27:00,15.7,10.9,29.72,West,259,14.0,23.0,81,0.00,,OVC039,0.00,VWS V14.01,2013-01-12 14:27:00,
2013-01-12 08:32:00,15.5,10.7,29.73,West,271,9.0,20.0,81,0.00,,OVC060,0.00,VWS V14.01,2013-01-12 14:32:00,
2013-01-12 08:37:00,15.5,10.7,29.73,West,263,8.0,23.0,81,0.00,,OVC060,0.00,VWS V14.01,2013-01-12 14:37:00,
2013-01-12 08:42:00,15.4,10.4,29.74,West,273,9.0,23.0,80,0.00,,OVC060,0.00,VWS V14.01,2013-01-12 14:42:00,
2013-01-12 08:47:00,15.4,10.4,29.74,WSW,248,8.0,23.0,80,0.00,,OVC060,0.00,VWS V14.01,2013-01-12 14:47:00,
2013-01-12 08:52:00,15.2,10.1,29.74,SW,217,17.0,23.0,80,0.00,,OVC048,0.00,VWS V14.01,2013-01-12 14:52:00,
2013-01-12 08:57:00,15.1,10.1,29.75,West,262,13.0,23.0,80,0.00,,OVC048,0.00,VWS V14.01,2013-01-12 14:57:00,
2013-01-12 09:02:00,15.2,10.1,29.75,SW,226,19.0,19.0,80,0.00,,OVC048,0.00,VWS V14.01,2013-01-12 15:02:00,
2013-01-12 09:07:00,15.1,10.1,29.75,West,270,8.0,19.0,80,0.00,,OVC048,0.00,VWS V14.01,2013-01-12 15:07:00,
2013-01-12 09:12:00,15.1,10.1,29.76,West,267,10.0,19.0,80,0.00,,OVC048,0.00,VWS V14.01,2013-01-12 15:12:00,
2013-01-12 09:17:00,14.8,9.8,29.76,West,266,16.0,19.0,80,0.00,,OVC048,0.00,VWS V14.01,2013-01-12 15:17:00,
2013-01-12 09:22:00,14.7,9.4,29.77,WSW,257,11.0,22.0,79,0.00,,OVC048,0.00,VWS V14.01,2013-01-12 15:22:00,
2013-01-12 09:27:00,14.5,8.9,29.77,WSW,250,11.0,22.0,78,0.00,,OVC048,0.00,VWS V14.01,2013-01-12 15:27:00,
2013-01-12 09:32:00,14.3,8.4,29.77,West,266,16.0,20.0,77,0.00,,OVC038,0.00,VWS V14.01,2013-01-12 15:32:00,
2013-01-12 09:37:00,14.2,8.6,29.77,West,264,18.0,20.0,78,0.00,,OVC038,0.00,VWS V14.01,2013-01-12 15:37:00,
2013-01-12 09:42:00,14.1,8.8,29.77,WSW,257,16.0,21.0,79,0.00,,OVC038,0.00,VWS V14.01,2013-01-12 15:42:00,
2013-01-12 09:47:00,14.1,8.5,29.78,WSW,249,13.0,21.0,78,0.00,,OVC038,0.00,VWS V14.01,2013-01-12 15:47:00,
2013-01-12 09:52:00,14.0,8.7,29.79,West,271,16.0,21.0,79,0.00,,OVC023,0.00,VWS V14.01,2013-01-12 15:52:00,
2013-01-12 09:57:00,14.0,8.7,29.79,West,266,14.0,21.0,79,0.00,,OVC023,0.00,VWS V14.01,2013-01-12 15:57:00,
2013-01-12 10:02:00,13.9,8.3,29.80,WSW,251,14.0,20.0,78,0.00,,OVC023,0.00,VWS V14.01,2013-01-12 16:02:00,
2013-01-12 10:07:00,13.8,8.2,29.80,WNW,282,11.0,21.0,78,0.00,,OVC023,0.00,VWS V14.01,2013-01-12 16:07:00,
2013-01-12 10:12:00,13.9,8.3,29.80,West,270,11.0,21.0,78,0.00,,OVC023,0.00,VWS V14.01,2013-01-12 16:12:00,
2013-01-12 10:17:00,13.8,7.9,29.81,WNW,284,10.0,21.0,77,0.00,,OVC023,0.00,VWS V14.01,2013-01-12 16:17:00,
2013-01-12 10:22:00,13.8,8.2,29.81,West,262,13.0,21.0,78,0.00,,OVC023,0.00,VWS V14.01,2013-01-12 16:22:00,
2013-01-12 10:27:00,13.9,8.3,29.82,WSW,253,12.0,21.0,78,0.00,,OVC023,0.00,VWS V14.01,2013-01-12 16:27:00,
2013-01-12 10:32:00,14.0,8.1,29.82,WSW,253,10.0,14.0,77,0.00,,OVC023,0.00,VWS V14.01,2013-01-12 16:32:00,
2013-01-12 10:37:00,14.1,7.9,29.83,West,259,15.0,17.0,76,0.00,,OVC023,0.00,VWS V14.01,2013-01-12 16:37:00,
2013-01-12 10:42:00,14.0,7.8,29.83,West,267,11.0,17.0,76,0.00,,OVC023,0.00,VWS V14.01,2013-01-12 16:42:00,
2013-01-12 10:47:00,14.0,7.8,29.83,West,269,13.0,17.0,76,0.00,,OVC023,0.00,VWS V14.01,2013-01-12 16:47:00,
2013-01-12 10:52:00,14.1,8.2,29.83,WSW,252,11.0,18.0,77,0.00,,OVC023,0.00,VWS V14.01,2013-01-12 16:52:00,
2013-01-12 10:57:00,14.3,8.1,29.83,West,277,9.0,21.0,76,0.00,,OVC023,0.00,VWS V14.01,2013-01-12 16:57:00,
2013-01-12 11:02:00,14.3,8.1,29.84,West,274,8.0,19.0,76,0.00,,OVC023,0.00,VWS V14.01,2013-01-12 17:02:00,
2013-01-12 11:07:00,14.3,8.4,29.84,West,267,11.0,19.0,77,0.00,,OVC023,0.00,VWS V14.01,2013-01-12 17:07:00,
2013-01-12 11:12:00,14.2,8.0,29.83,West,281,8.0,19.0,76,0.00,,OVC023,0.00,VWS V14.01,2013-01-12 17:12:00,
2013-01-12 11:17:00,14.1,8.2,29.83,WSW,255,11.0,19.0,77,0.00,,OVC023,0.00,VWS V14.01,2013-01-12 17:17:00,
2013-01-12 11:22:00,14.3,8.7,29.84,West,264,8.0,19.0,78,0.00,,OVC023,0.00,VWS V14.01,2013-01-12 17:22:00,
2013-01-12 11:27:00,14.0,8.1,29.85,West,281,10.0,19.0,77,0.00,,OVC023,0.00,VWS V14.01,2013-01-12 17:27:00,
2013-01-12 11:32:00,14.4,8.8,29.85,West,260,8.0,16.0,78,0.00,,OVC023,0.00,VWS V14.01,2013-01-12 17:32:00,
2013-01-12 11:37:00,14.3,8.1,29.85,WSW,254,13.0,19.0,76,0.00,,OVC023,0.00,VWS V14.01,2013-01-12 17:37:00,
2013-01-12 11:42:00,14.4,8.5,29.85,WSW,242,9.0,19.0,77,0.00,,OVC023,0.00,VWS V14.01,2013-01-12 17:42:00,
2013-01-12 11:47:00,14.4,8.2,29.85,WSW,242,16.0,19.0,76,0.00,,OVC023,0.00,VWS V14.01,2013-01-12 17:47:00,
2013-01-12 11:52:00,14.4,8.2,29.85,West,265,13.0,19.0,76,0.00,,OVC023,0.00,VWS V14.01,2013-01-12 17:52:00,
2013-01-12 11:57:00,14.2,8.0,29.85,West,276,14.0,20.0,76,0.00,,OVC023,0.00,VWS V14.01,2013-01-12 17:57:00,
2013-01-12 12:02:00,13.8,7.7,29.85,West,262,8.0,17.0,76,0.00,,OVC023,0.00,VWS V14.01,2013-01-12 18:02:00,
2013-01-12 12:07:00,13.5,7.1,29.85,WSW,243,14.0,18.0,75,0.00,,OVC023,0.00,VWS V14.01,2013-01-12 18:07:00,
2013-01-12 12:12:00,13.5,7.1,29.85,WSW,258,7.0,18.0,75,0.00,,OVC023,0.00,VWS V14.01,2013-01-12 18:12:00,
2013-01-12 12:17:00,13.7,7.3,29.85,West,269,9.0,19.0,75,0.00,,OVC023,0.00,VWS V14.01,2013-01-12 18:17:00,
2013-01-12 12:22:00,13.8,7.4,29.85,West,273,10.0,19.0,75,0.00,,OVC023,0.00,VWS V14.01,2013-01-12 18:22:00,
2013-01-12 12:27:00,14.3,8.4,29.85,West,274,14.0,19.0,77,0.00,,OVC023,0.00,VWS V14.01,2013-01-12 18:27:00,
2013-01-12 12:32:00,14.1,7.7,29.85,West,278,16.0,16.0,75,0.00,,OVC023,0.00,VWS V14.01,2013-01-12 18:32:00,
2013-01-12 12:37:00,13.9,7.8,29.86,West,278,9.0,17.0,76,0.00,,OVC025,0.00,VWS V14.01,2013-01-12 18:37:00,
2013-01-12 12:42:00,13.9,7.8,29.86,West,266,11.0,17.0,76,0.00,,OVC025,0.00,VWS V14.01,2013-01-12 18:42:00,
2013-01-12 12:47:00,13.8,7.4,29.86,West,271,12.0,17.0,75,0.00,,OVC025,0.00,VWS V14.01,2013-01-12 18:47:00,
2013-01-12 12:52:00,13.9,7.8,29.87,West,278,9.0,17.0,76,0.00,,OVC025,0.00,VWS V14.01,2013-01-12 18:52:00,
2013-01-12 12:57:00,13.8,7.4,29.87,WSW,245,12.0,18.0,75,0.00,,OVC025,0.00,VWS V14.01,2013-01-12 18:57:00,
2013-01-12 13:02:00,13.7,7.3,29.87,West,278,12.0,15.0,75,0.00,,OVC025,0.00,VWS V14.01,2013-01-12 19:02:00,
2013-01-12 13:07:00,13.7,7.6,29.87,West,277,12.0,15.0,76,0.00,,OVC025,0.00,VWS V14.01,2013-01-12 19:07:00,
2013-01-12 13:12:00,13.7,7.3,29.87,WNW,292,5.0,19.0,75,0.00,,OVC025,0.00,VWS V14.01,2013-01-12 19:12:00,
2013-01-12 13:17:00,13.8,7.1,29.88,WSW,257,11.0,19.0,74,0.00,,OVC023,0.00,VWS V14.01,2013-01-12 19:17:00,
2013-01-12 13:22:00,14.0,7.2,29.88,West,269,17.0,19.0,74,0.00,,OVC025,0.00,VWS V14.01,2013-01-12 19:22:00,
2013-01-12 13:27:00,13.9,7.4,29.88,WSW,242,12.0,19.0,75,0.00,,OVC025,0.00,VWS V14.01,2013-01-12 19:27:00,
2013-01-12 13:32:00,13.9,7.2,29.89,West,262,11.0,16.0,74,0.00,,OVC025,0.00,VWS V14.01,2013-01-12 19:32:00,
2013-01-12 13:37:00,14.0,7.2,29.89,WNW,285,5.0,16.0,74,0.00,,OVC025,0.00,VWS V14.01,2013-01-12 19:37:00,
2013-01-12 13:42:00,14.0,6.7,29.90,West,281,11.0,16.0,72,0.00,,OVC025,0.00,VWS V14.01,2013-01-12 19:42:00,
2013-01-12 13:47:00,14.0,7.0,29.90,West,259,11.0,16.0,73,0.00,,OVC025,0.00,VWS V14.01,2013-01-12 19:47:00,
2013-01-12 13:52:00,13.9,6.9,29.90,West,266,10.0,16.0,73,0.00,,OVC025,0.00,VWS V14.01,2013-01-12 19:52:00,
2013-01-12 13:57:00,14.1,7.3,29.91,West,269,9.0,16.0,74,0.00,,OVC025,0.00,VWS V14.01,2013-01-12 19:57:00,
2013-01-12 14:02:00,13.8,7.1,29.92,West,277,8.0,15.0,74,0.00,,OVC025,0.00,VWS V14.01,2013-01-12 20:02:00,
2013-01-12 14:07:00,13.5,6.5,29.92,West,278,9.0,15.0,73,0.00,,OVC025,0.00,VWS V14.01,2013-01-12 20:07:00,
2013-01-12 14:12:00,13.7,7.0,29.92,West,271,6.0,15.0,74,0.00,,OVC025,0.00,VWS V14.01,2013-01-12 20:12:00,
2013-01-12 14:17:00,13.7,7.0,29.93,West,281,7.0,15.0,74,0.00,,OVC025,0.00,VWS V14.01,2013-01-12 20:17:00,
2013-01-12 14:22:00,13.4,6.7,29.93,WSW,257,8.0,17.0,74,0.00,,OVC025,0.00,VWS V14.01,2013-01-12 20:22:00,
2013-01-12 14:27:00,13.4,6.7,29.93,West,274,7.0,17.0,74,0.00,,OVC025,0.00,VWS V14.01,2013-01-12 20:27:00,
2013-01-12 14:32:00,13.3,6.6,29.93,West,275,17.0,17.0,74,0.00,,OVC025,0.00,VWS V14.01,2013-01-12 20:32:00,
2013-01-12 14:37:00,13.2,6.5,29.93,West,262,11.0,17.0,74,0.00,,OVC027,0.00,VWS V14.01,2013-01-12 20:37:00,
2013-01-12 14:42:00,13.2,6.2,29.93,West,263,9.0,17.0,73,0.00,,OVC027,0.00,VWS V14.01,2013-01-12 20:42:00,
2013-01-12 14:47:00,13.1,6.1,29.93,West,271,9.0,17.0,73,0.00,,OVC027,0.00,VWS V14.01,2013-01-12 20:47:00,
2013-01-12 14:52:00,13.0,6.3,29.94,West,274,7.0,17.0,74,0.00,,OVC027,0.00,VWS V14.01,2013-01-12 20:52:00,
2013-01-12 14:57:00,13.1,6.4,29.93,WSW,257,8.0,17.0,74,0.00,,OVC027,0.00,VWS V14.01,2013-01-12 20:57:00,
2013-01-12 15:02:00,13.0,5.7,29.94,West,266,11.0,17.0,72,0.00,,OVC027,0.00,VWS V14.01,2013-01-12 21:02:00,
2013-01-12 15:07:00,12.8,5.8,29.94,WNW,290,9.0,17.0,73,0.00,,OVC027,0.00,VWS V14.01,2013-01-12 21:07:00,
2013-01-12 15:12:00,12.9,6.2,29.94,WSW,248,10.0,17.0,74,0.00,,OVC027,0.00,VWS V14.01,2013-01-12 21:12:00,
2013-01-12 15:17:00,12.7,5.7,29.94,West,259,9.0,17.0,73,0.00,,OVC027,0.00,VWS V14.01,2013-01-12 21:17:00,
2013-01-12 15:22:00,12.7,6.0,29.95,West,274,7.0,17.0,74,0.00,,OVC027,0.00,VWS V14.01,2013-01-12 21:22:00,
2013-01-12 15:27:00,12.5,5.8,29.95,West,273,7.0,17.0,74,0.00,,OVC027,0.00,VWS V14.01,2013-01-12 21:27:00,
2013-01-12 15:32:00,12.5,5.5,29.95,West,270,8.0,11.0,73,0.00,,OVC027,0.00,VWS V14.01,2013-01-12 21:32:00,
2013-01-12 15:37:00,12.4,5.7,29.96,West,266,5.0,11.0,74,0.00,,OVC029,0.00,VWS V14.01,2013-01-12 21:37:00,
2013-01-12 15:42:00,12.4,5.7,29.95,West,281,6.0,11.0,74,0.00,,OVC029,0.00,VWS V14.01,2013-01-12 21:42:00,
2013-01-12 15:46:00,12.2,5.5,29.96,WNW,284,7.0,13.0,74,0.00,,OVC029,0.00,VWS V14.01,2013-01-12 21:46:00,
2013-01-12 15:52:00,12.1,5.4,29.96,WNW,290,7.0,14.0,74,0.00,,OVC029,0.00,VWS V14.01,2013-01-12 21:52:00,
2013-01-12 15:57:00,11.9,5.2,29.96,WNW,288,7.0,14.0,74,0.00,,OVC029,0.00,VWS V14.01,2013-01-12 21:57:00,
2013-01-12 16:02:00,11.9,5.5,29.96,West,276,10.0,11.0,75,0.00,,OVC029,0.00,VWS V14.01,2013-01-12 22:02:00,
2013-01-12 16:07:00,11.8,5.4,29.96,West,280,8.0,12.0,75,0.00,,OVC029,0.00,VWS V14.01,2013-01-12 22:07:00,
2013-01-12 16:12:00,11.5,5.4,29.96,West,277,8.0,13.0,76,0.00,,OVC029,0.00,VWS V14.01,2013-01-12 22:12:00,
2013-01-12 16:16:00,11.5,6.0,29.96,West,275,6.0,13.0,78,0.00,,OVC027,0.00,VWS V14.01,2013-01-12 22:16:00,
2013-01-12 16:21:00,11.4,5.3,29.96,WNW,288,6.0,13.0,76,0.00,,OVC029,0.00,VWS V14.01,2013-01-12 22:21:00,
2013-01-12 16:26:00,11.3,4.9,29.96,WSW,253,8.0,13.0,75,0.00,,OVC029,0.00,VWS V14.01,2013-01-12 22:26:00,
2013-01-12 16:31:00,11.3,4.9,29.96,West,270,7.0,13.0,75,0.00,,OVC027,0.00,VWS V14.01,2013-01-12 22:31:00,
2013-01-12 16:36:00,11.1,4.7,29.97,WNW,302,8.0,13.0,75,0.00,,OVC027,0.00,VWS V14.01,2013-01-12 22:36:00,
2013-01-12 16:41:00,11.1,4.4,29.97,WNW,288,3.0,13.0,74,0.00,,OVC027,0.00,VWS V14.01,2013-01-12 22:41:00,
2013-01-12 16:46:00,10.9,4.6,29.96,WNW,286,3.0,13.0,75,0.00,,OVC027,0.00,VWS V14.01,2013-01-12 22:46:00,
2013-01-12 16:51:00,10.8,4.7,29.97,West,278,3.0,13.0,76,0.00,,OVC027,0.00,VWS V14.01,2013-01-12 22:51:00,
2013-01-12 16:56:00,10.7,4.6,29.98,West,271,4.0,13.0,76,0.00,,OVC027,0.00,VWS V14.01,2013-01-12 22:56:00,
2013-01-12 17:01:00,10.7,4.9,29.99,WSW,249,7.0,10.0,77,0.00,,OVC027,0.00,VWS V14.01,2013-01-12 23:01:00,
2013-01-12 17:06:00,10.6,4.8,29.99,West,270,5.0,10.0,77,0.00,,OVC027,0.00,VWS V14.01,2013-01-12 23:06:00,
2013-01-12 17:11:00,10.6,4.5,29.99,West,266,4.0,12.0,76,0.00,,OVC027,0.00,VWS V14.01,2013-01-12 23:11:00,
2013-01-12 17:16:00,10.5,4.4,29.99,West,274,4.0,12.0,76,0.00,,OVC027,0.00,VWS V14.01,2013-01-12 23:16:00,
2013-01-12 17:21:00,10.4,4.1,29.99,West,280,4.0,12.0,75,0.00,,OVC027,0.00,VWS V14.01,2013-01-12 23:21:00,
2013-01-12 17:26:00,10.4,4.1,30.00,WNW,295,5.0,12.0,75,0.00,,OVC027,0.00,VWS V14.01,2013-01-12 23:26:00,
2013-01-12 17:31:00,10.3,3.7,30.00,West,280,7.0,13.0,74,0.00,,OVC027,0.00,VWS V14.01,2013-01-12 23:31:00,
2013-01-12 17:36:00,10.2,3.6,30.01,West,270,6.0,13.0,74,0.00,,OVC029,0.00,VWS V14.01,2013-01-12 23:36:00,
2013-01-12 17:41:00,10.2,3.3,30.01,West,266,3.0,13.0,73,0.00,,OVC029,0.00,VWS V14.01,2013-01-12 23:41:00,
2013-01-12 17:46:00,10.2,3.6,30.02,West,269,11.0,13.0,74,0.00,,OVC029,0.00,VWS V14.01,2013-01-12 23:46:00,
2013-01-12 17:51:00,10.1,3.8,30.02,WNW,285,7.0,13.0,75,0.00,,OVC029,0.00,VWS V14.01,2013-01-12 23:51:00,
2013-01-12 17:56:00,10.0,3.4,30.02,West,281,4.0,13.0,74,0.00,,OVC027,0.00,VWS V14.01,2013-01-12 23:56:00,
2013-01-12 18:01:00,10.0,3.1,30.03,West,277,5.0,10.0,73,0.00,,OVC029,0.00,VWS V14.01,2013-01-13 00:01:00,
2013-01-12 18:06:00,10.0,3.1,30.02,West,273,5.0,10.0,73,0.00,,OVC029,0.00,VWS V14.01,2013-01-13 00:06:00,
2013-01-12 18:11:00,10.0,2.8,30.02,West,278,5.0,10.0,72,0.00,,OVC029,0.00,VWS V14.01,2013-01-13 00:11:00,
2013-01-12 18:16:00,10.0,3.4,30.02,West,274,7.0,10.0,74,0.00,,OVC029,0.00,VWS V14.01,2013-01-13 00:16:00,
2013-01-12 18:21:00,9.9,3.3,30.02,West,270,6.0,10.0,74,0.00,,OVC029,0.00,VWS V14.01,2013-01-13 00:21:00,
2013-01-12 18:26:00,9.9,3.6,30.02,West,267,5.0,10.0,75,0.00,,OVC029,0.00,VWS V14.01,2013-01-13 00:26:00,
2013-01-12 18:31:00,9.8,3.5,30.02,WNW,288,6.0,10.0,75,0.00,,OVC029,0.00,VWS V14.01,2013-01-13 00:31:00,
2013-01-12 18:36:00,9.7,3.4,30.01,West,275,9.0,11.0,75,0.00,,OVC029,0.00,VWS V14.01,2013-01-13 00:36:00,
2013-01-12 18:41:00,9.6,3.8,30.01,West,270,5.0,11.0,77,0.00,,OVC029,0.00,VWS V14.01,2013-01-13 00:41:00,
2013-01-12 18:46:00,9.5,3.8,30.01,WNW,284,5.0,11.0,77,0.00,,OVC029,0.00,VWS V14.01,2013-01-13 00:46:00,
2013-01-12 18:51:00,9.4,3.7,30.00,WSW,243,3.0,11.0,77,0.00,,OVC029,0.00,VWS V14.01,2013-01-13 00:51:00,
2013-01-12 18:56:00,9.3,3.6,30.01,West,276,6.0,11.0,77,0.00,,OVC029,0.00,VWS V14.01,2013-01-13 00:56:00,
2013-01-12 19:01:00,9.1,3.4,30.01,West,274,8.0,10.0,77,0.00,,OVC029,0.00,VWS V14.01,2013-01-13 01:01:00,
2013-01-12 19:06:00,9.0,3.3,30.01,WNW,291,5.0,11.0,77,0.00,,OVC029,0.00,VWS V14.01,2013-01-13 01:06:00,
2013-01-12 19:11:00,8.9,3.2,30.02,West,281,6.0,11.0,77,0.00,,OVC029,0.00,VWS V14.01,2013-01-13 01:11:00,
2013-01-12 19:16:00,8.8,3.4,30.02,WNW,283,7.0,11.0,78,0.00,,OVC029,0.00,VWS V14.01,2013-01-13 01:16:00,
2013-01-12 19:21:00,8.7,3.3,30.03,West,262,9.0,11.0,78,0.00,,OVC029,0.00,VWS V14.01,2013-01-13 01:21:00,
2013-01-12 19:26:00,8.6,2.9,30.03,West,281,5.0,12.0,77,0.00,,OVC029,0.00,VWS V14.01,2013-01-13 01:26:00,
2013-01-12 19:31:00,8.5,2.8,30.03,West,274,4.0,10.0,77,0.00,,OVC031,0.00,VWS V14.01,2013-01-13 01:31:00,
2013-01-12 19:36:00,8.5,2.8,30.03,West,274,6.0,10.0,77,0.00,,OVC031,0.00,VWS V14.01,2013-01-13 01:36:00,
2013-01-12 19:41:00,8.4,2.7,30.02,West,279,4.0,10.0,77,0.00,,OVC031,0.00,VWS V14.01,2013-01-13 01:41:00,
2013-01-12 19:46:00,8.3,2.9,30.02,WSW,257,5.0,10.0,78,0.00,,OVC031,0.00,VWS V14.01,2013-01-13 01:46:00,
2013-01-12 19:51:00,8.1,2.4,30.02,WNW,286,4.0,10.0,77,0.00,,OVC031,0.00,VWS V14.01,2013-01-13 01:51:00,
2013-01-12 19:56:00,8.0,2.6,30.02,WNW,283,6.0,10.0,78,0.00,,OVC031,0.00,VWS V14.01,2013-01-13 01:56:00,
2013-01-12 20:01:00,7.9,2.5,30.03,WNW,286,4.0,6.0,78,0.00,,OVC031,0.00,VWS V14.01,2013-01-13 02:01:00,
2013-01-12 20:06:00,7.8,2.1,30.04,West,281,3.0,9.0,77,0.00,,OVC031,0.00,VWS V14.01,2013-01-13 02:06:00,
2013-01-12 20:11:00,7.7,2.3,30.04,West,274,6.0,9.0,78,0.00,,OVC031,0.00,VWS V14.01,2013-01-13 02:11:00,
2013-01-12 20:16:00,7.7,2.3,30.05,WSW,256,6.0,9.0,78,0.00,,OVC031,0.00,VWS V14.01,2013-01-13 02:16:00,
2013-01-12 20:21:00,7.7,2.3,30.06,West,274,8.0,9.0,78,0.00,,OVC031,0.00,VWS V14.01,2013-01-13 02:21:00,
2013-01-12 20:26:00,7.6,1.9,30.05,West,264,3.0,10.0,77,0.00,,OVC031,0.00,VWS V14.01,2013-01-13 02:26:00,
2013-01-12 20:31:00,7.6,2.2,30.05,WNW,284,7.0,7.0,78,0.00,,OVC031,0.00,VWS V14.01,2013-01-13 02:31:00,
2013-01-12 20:37:00,7.6,2.2,30.05,WNW,285,3.0,7.0,78,0.00,,OVC029,0.00,VWS V14.01,2013-01-13 02:37:00,
2013-01-12 20:41:00,7.4,2.0,30.03,WNW,287,2.0,9.0,78,0.00,,OVC029,0.00,VWS V14.01,2013-01-13 02:41:00,
2013-01-12 20:46:00,7.3,1.9,30.05,West,274,2.0,9.0,78,0.00,,OVC029,0.00,VWS V14.01,2013-01-13 02:46:00,
2013-01-12 20:52:00,7.3,1.9,30.06,West,273,6.0,11.0,78,0.00,,OVC029,0.00,VWS V14.01,2013-01-13 02:52:00,
2013-01-12 20:57:00,7.3,2.2,30.06,West,275,9.0,11.0,79,0.00,,OVC029,0.00,VWS V14.01,2013-01-13 02:57:00,
2013-01-12 21:02:00,7.3,2.2,30.05,West,280,3.0,9.0,79,0.00,,OVC029,0.00,VWS V14.01,2013-01-13 03:02:00,
2013-01-12 21:07:00,7.2,2.1,30.05,West,281,8.0,9.0,79,0.00,,OVC029,0.00,VWS V14.01,2013-01-13 03:07:00,
2013-01-12 21:12:00,7.1,2.0,30.06,West,262,6.0,9.0,79,0.00,,OVC029,0.00,VWS V14.01,2013-01-13 03:12:00,
2013-01-12 21:17:00,7.0,2.2,30.07,West,260,4.0,9.0,80,0.00,,OVC029,0.00,VWS V14.01,2013-01-13 03:17:00,
2013-01-12 21:22:00,7.0,1.9,30.07,West,270,5.0,9.0,79,0.00,,OVC029,0.00,VWS V14.01,2013-01-13 03:22:00,
2013-01-12 21:27:00,6.9,2.0,30.08,WSW,253,7.0,9.0,80,0.00,,OVC029,0.00,VWS V14.01,2013-01-13 03:27:00,
2013-01-12 21:32:00,6.8,2.0,30.07,West,274,3.0,8.0,80,0.00,,OVC029,0.00,VWS V14.01,2013-01-13 03:32:00,
2013-01-12 21:37:00,6.7,1.9,30.06,WNW,283,5.0,8.0,80,0.00,,OVC031,0.00,VWS V14.01,2013-01-13 03:37:00,
2013-01-12 21:42:00,6.7,1.9,30.06,West,278,3.0,8.0,80,0.00,,OVC031,0.00,VWS V14.01,2013-01-13 03:42:00,
2013-01-12 21:47:00,6.6,1.8,30.06,WNW,288,2.0,8.0,80,0.00,,OVC031,0.00,VWS V14.01,2013-01-13 03:47:00,
2013-01-12 21:52:00,6.5,1.9,30.06,West,276,2.0,8.0,81,0.00,,OVC031,0.00,VWS V14.01,2013-01-13 03:52:00,
2013-01-12 21:57:00,6.4,1.8,30.07,West,267,4.0,8.0,81,0.00,,OVC031,0.00,VWS V14.01,2013-01-13 03:57:00,
2013-01-12 22:02:00,6.3,1.7,30.07,WNW,285,5.0,9.0,81,0.00,,OVC031,0.00,VWS V14.01,2013-01-13 04:02:00,
2013-01-12 22:07:00,6.3,1.7,30.07,West,278,3.0,9.0,81,0.00,,OVC031,0.00,VWS V14.01,2013-01-13 04:07:00,
2013-01-12 22:12:00,6.2,1.6,30.07,West,278,6.0,9.0,81,0.00,,OVC031,0.00,VWS V14.01,2013-01-13 04:12:00,
2013-01-12 22:17:00,6.2,1.6,30.06,WNW,284,2.0,9.0,81,0.00,,OVC031,0.00,VWS V14.01,2013-01-13 04:17:00,
2013-01-12 22:22:00,6.1,1.5,30.06,West,278,3.0,9.0,81,0.00,,OVC031,0.00,VWS V14.01,2013-01-13 04:22:00,
2013-01-12 22:27:00,6.0,1.4,30.06,WNW,284,2.0,9.0,81,0.00,,OVC031,0.00,VWS V14.01,2013-01-13 04:27:00,
2013-01-12 22:32:00,5.9,1.3,30.06,West,280,2.0,4.0,81,0.00,,OVC031,0.00,VWS V14.01,2013-01-13 04:32:00,
2013-01-12 22:37:00,5.9,1.3,30.06,WNW,285,3.0,6.0,81,0.00,,OVC031,0.00,VWS V14.01,2013-01-13 04:37:00,
2013-01-12 22:42:00,5.8,1.2,30.07,West,271,5.0,6.0,81,0.00,,OVC031,0.00,VWS V14.01,2013-01-13 04:42:00,
2013-01-12 22:47:00,5.7,1.1,30.07,West,281,2.0,6.0,81,0.00,,OVC031,0.00,VWS V14.01,2013-01-13 04:47:00,
2013-01-12 22:52:00,5.7,1.1,30.06,West,278,2.0,6.0,81,0.00,,OVC031,0.00,VWS V14.01,2013-01-13 04:52:00,
2013-01-12 22:57:00,5.6,1.0,30.07,WNW,287,3.0,6.0,81,0.00,,OVC031,0.00,VWS V14.01,2013-01-13 04:57:00,
2013-01-12 23:01:00,5.5,0.9,30.07,West,276,2.0,4.0,81,0.00,,OVC031,0.00,VWS V14.01,2013-01-13 05:01:00,
2013-01-12 23:02:00,5.5,0.9,30.07,West,281,1.0,4.0,81,0.00,,OVC031,0.00,VWS V14.01,2013-01-13 05:02:00,
2013-01-12 23:03:00,5.4,0.9,30.07,West,273,0.0,4.0,81,0.00,,OVC031,0.00,VWS V14.01,2013-01-13 05:03:00,
2013-01-12 23:08:00,5.4,0.9,30.06,WNW,291,1.0,4.0,81,0.00,,OVC031,0.00,VWS V14.01,2013-01-13 05:08:00,
2013-01-12 23:13:00,5.3,0.8,30.06,WNW,290,0.0,4.0,81,0.00,,OVC031,0.00,VWS V14.01,2013-01-13 05:13:00,
2013-01-12 23:18:00,5.2,0.9,30.06,WNW,288,2.0,4.0,82,0.00,,OVC031,0.00,VWS V14.01,2013-01-13 05:18:00,
2013-01-12 23:23:00,5.2,0.9,30.07,West,278,3.0,5.0,82,0.00,,OVC031,0.00,VWS V14.01,2013-01-13 05:23:00,
2013-01-12 23:28:00,5.2,0.9,30.07,WSW,253,4.0,6.0,82,0.00,,OVC031,0.00,VWS V14.01,2013-01-13 05:28:00,
2013-01-12 23:33:00,5.2,0.9,30.07,West,278,5.0,7.0,82,0.00,,OVC033,0.00,VWS V14.01,2013-01-13 05:33:00,
2013-01-12 23:38:00,5.2,0.9,30.07,WNW,294,2.0,7.0,82,0.00,,OVC033,0.00,VWS V14.01,2013-01-13 05:38:00,
2013-01-12 23:43:00,5.2,0.9,30.07,West,273,4.0,7.0,82,0.00,,OVC033,0.00,VWS V14.01,2013-01-13 05:43:00,
2013-01-12 23:48:00,5.2,0.9,30.06,NW,304,4.0,7.0,82,0.00,,OVC033,0.00,VWS V14.01,2013-01-13 05:48:00,
2013-01-12 23:53:00,5.3,1.3,30.07,WNW,284,3.0,7.0,83,0.00,,OVC033,0.00,VWS V14.01,2013-01-13 05:53:00,
2013-01-12 23:58:00,5.3,1.0,30.06,WNW,294,2.0,7.0,82,0.00,,OVC033,0.00,VWS V14.01,2013-01-13 05:58:00,